Time;durP1;ratioP1;P1;durP2;ratioP2;P2;SDS_P1;SDS_P2;PMS_P1;PMS_P2;Temp;Humidity;BMP_temperature;BMP_pressure;BME280_temperature;BME280_humidity;BME280_pressure;Samples;Min_cycle;Max_cycle;Signal;HPM_P1;HPM_P2
2022/10/08 00:01:12;;;;;;;5.00;2.97;;;;;;;8.35;83.25;96447.59;1757089;81;21046;-66
2022/10/08 00:03:43;;;;;;;4.97;3.67;;;;;;;8.33;83.34;96442.31;1757244;82;21003;-66
2022/10/08 00:06:23;;;;;;;5.77;3.30;;;;;;;8.28;83.92;96441.86;1756934;82;21000;-66
2022/10/08 00:08:53;;;;;;;5.07;3.33;;;;;;;8.32;83.90;96436.63;1757192;82;21031;-66
2022/10/08 00:11:24;;;;;;;7.97;4.33;;;;;;;8.25;84.00;96433.53;1757238;81;21026;-67
2022/10/08 00:13:54;;;;;;;6.40;3.53;;;;;;;8.19;84.00;96430.89;1757117;81;21026;-66
2022/10/08 00:16:29;;;;;;;6.00;3.17;;;;;;;8.15;84.50;96427.34;1757501;81;21055;-66
2022/10/08 00:19:00;;;;;;;5.80;3.27;;;;;;;8.10;84.08;96427.77;1757173;82;21059;-66
2022/10/08 00:21:34;;;;;;;5.73;3.10;;;;;;;8.01;84.51;96423.36;1757303;81;21038;-66
2022/10/08 00:24:04;;;;;;;5.03;3.17;;;;;;;7.96;84.46;96421.56;1756771;82;20995;-66
2022/10/08 00:26:33;;;;;;;5.03;3.40;;;;;;;7.90;85.35;96418.91;1756853;82;21489;-66
2022/10/08 00:29:03;;;;;;;4.03;3.63;;;;;;;7.85;85.38;96420.20;1757111;82;21059;-66
2022/10/08 00:31:39;;;;;;;6.27;3.93;;;;;;;7.83;85.04;96417.13;1757234;82;20999;-66
2022/10/08 00:34:10;;;;;;;7.27;4.07;;;;;;;7.75;84.40;96412.70;1757014;82;21493;-66
2022/10/08 00:36:39;;;;;;;5.07;3.00;;;;;;;7.70;84.82;96409.61;1757099;81;21016;-66
2022/10/08 00:39:15;;;;;;;6.63;2.93;;;;;;;7.69;85.41;96404.80;1757086;81;21043;-66
2022/10/08 00:41:46;;;;;;;5.53;3.10;;;;;;;7.70;84.94;96398.66;1756977;82;21038;-66
2022/10/08 00:44:59;;;;;;;4.17;3.10;;;;;;;7.72;85.43;96402.63;1757143;82;21453;-66
2022/10/08 00:47:36;;;;;;;4.30;2.77;;;;;;;7.75;85.80;96400.88;1755448;82;21086;-66
2022/10/08 00:50:27;;;;;;;4.57;3.00;;;;;;;7.83;85.60;96393.47;1756905;82;21031;-66
2022/10/08 00:53:02;;;;;;;4.40;3.03;;;;;;;7.83;85.42;96391.72;1756961;82;21058;-66
2022/10/08 00:55:31;;;;;;;3.30;2.50;;;;;;;7.87;85.27;96384.75;1757318;82;21469;-66
2022/10/08 00:58:02;;;;;;;4.10;3.03;;;;;;;7.88;84.97;96391.30;1757045;82;21030;-66
2022/10/08 01:00:31;;;;;;;3.97;3.20;;;;;;;7.87;85.22;96387.38;1756832;82;21473;-66
2022/10/08 01:02:59;;;;;;;5.50;3.17;;;;;;;7.86;84.69;96391.77;1757217;82;21007;-66
2022/10/08 01:05:56;;;;;;;3.07;2.67;;;;;;;7.80;83.48;96385.14;1757110;81;21015;-66
2022/10/08 01:08:31;;;;;;;8.07;3.20;;;;;;;7.68;83.11;96383.32;1755462;82;20994;-66
2022/10/08 01:11:09;;;;;;;4.53;2.60;;;;;;;7.59;83.78;96389.86;1756060;82;21331;-66
2022/10/08 01:13:58;;;;;;;4.40;2.83;;;;;;;7.59;84.36;96389.86;1757196;81;21529;-66
2022/10/08 01:16:39;;;;;;;3.27;2.33;;;;;;;7.66;84.93;96387.72;1756788;81;21047;-66
2022/10/08 01:19:49;;;;;;;4.23;2.33;;;;;;;7.65;83.53;96386.38;1756448;82;21051;-66
2022/10/08 01:22:21;;;;;;;4.70;2.30;;;;;;;7.64;84.44;96383.32;1756924;81;21015;-66
2022/10/08 01:27:46;;;;;;;2.90;2.30;;;;;;;7.73;84.44;96383.35;1757178;81;21039;-67
2022/10/08 01:30:16;;;;;;;3.50;2.40;;;;;;;7.75;84.20;96377.23;1756822;82;21064;-66
2022/10/08 01:33:00;;;;;;;3.83;2.33;;;;;;;7.69;83.88;96375.03;1756857;82;21514;-66
2022/10/08 01:35:29;;;;;;;;;;;;;;;7.70;84.51;96371.08;1759502;81;21006;-67
2022/10/08 01:38:00;;;;;;;6.80;3.00;;;;;;;7.77;84.44;96368.93;1756810;82;20146;-66
2022/10/08 01:40:31;;;;;;;2.67;2.47;;;;;;;7.78;84.17;96369.80;1729837;82;21009;-66
2022/10/08 01:43:00;;;;;;;5.00;2.70;;;;;;;7.61;83.48;96364.48;1756935;81;21010;-66
2022/10/08 01:45:34;;;;;;;6.37;3.17;;;;;;;7.49;83.22;96369.67;1757208;81;21027;-66
2022/10/08 01:48:09;;;;;;;3.63;3.30;;;;;;;7.48;83.67;96362.20;1757263;82;20999;-66
2022/10/08 01:50:47;;;;;;;5.27;2.60;;;;;;;7.57;84.38;96360.08;1756838;82;21115;-66
2022/10/08 01:53:16;;;;;;;3.83;3.07;;;;;;;7.53;83.40;96359.60;1756499;82;21019;-66
2022/10/08 01:55:50;;;;;;;4.63;2.70;;;;;;;7.51;83.69;96354.77;1757229;81;21023;-66
2022/10/08 01:58:26;;;;;;;3.20;2.80;;;;;;;7.45;83.93;96359.56;1756669;82;21031;-66
2022/10/08 02:00:57;;;;;;;5.33;3.37;;;;;;;7.38;84.21;96352.52;1757290;82;21037;-66
2022/10/08 02:03:23;;;;;;;3.43;2.70;;;;;;;7.32;84.55;96355.12;1729965;82;21019;-66
2022/10/08 02:05:53;;;;;;;3.30;3.00;;;;;;;7.25;85.47;96352.00;1757307;81;20999;-66
2022/10/08 02:08:22;;;;;;;4.23;2.90;;;;;;;7.18;84.92;96355.01;1757186;81;21563;-66
2022/10/08 02:10:50;;;;;;;5.20;2.50;;;;;;;7.12;85.14;96351.91;1757194;82;21086;-67
2022/10/08 02:13:17;;;;;;;3.33;2.90;;;;;;;7.10;85.83;96352.33;1757141;81;21536;-66
2022/10/08 02:15:49;;;;;;;4.00;2.97;;;;;;;7.05;85.55;96351.42;1757324;81;21015;-66
2022/10/08 02:18:24;;;;;;;6.63;3.03;;;;;;;6.97;85.11;96344.38;1756976;81;21047;-66
2022/10/08 02:21:04;;;;;;;6.07;3.00;;;;;;;6.94;84.55;96347.41;1756885;82;21509;-66
2022/10/08 02:23:48;;;;;;;4.97;3.10;;;;;;;7.00;84.85;96349.64;1757208;82;21047;-66
2022/10/08 02:26:19;;;;;;;8.63;3.00;;;;;;;7.05;84.94;96350.55;1757026;81;21122;-66
2022/10/08 02:29:00;;;;;;;2.87;2.57;;;;;;;7.10;85.67;96353.64;1757194;81;21019;-66
2022/10/08 02:31:47;;;;;;;2.60;2.40;;;;;;;7.11;85.27;96350.17;1730085;82;20999;-66
2022/10/08 02:34:36;;;;;;;5.23;2.70;;;;;;;7.05;85.16;96350.55;1757310;81;21019;-66
2022/10/08 02:37:18;;;;;;;8.60;2.80;;;;;;;7.04;84.86;96351.43;1729855;82;21027;-66
2022/10/08 02:39:50;;;;;;;7.63;2.97;;;;;;;7.07;85.58;96346.20;1756175;82;21102;-66
2022/10/08 02:42:23;;;;;;;4.73;2.70;;;;;;;7.10;86.12;96349.70;1757097;82;21496;-67
2022/10/08 02:44:52;;;;;;;;;;;;;;;7.09;85.53;96353.66;1759604;81;21034;-66
2022/10/08 02:47:22;;;;;;;3.73;2.63;;;;;;;7.09;85.41;96352.34;1757145;82;20110;-66
2022/10/08 02:49:54;;;;;;;2.93;2.60;;;;;;;7.03;85.07;96346.62;1757174;82;21031;-66
2022/10/08 02:52:26;;;;;;;2.90;2.60;;;;;;;7.03;85.51;96348.34;1757163;81;21011;-66
2022/10/08 02:54:54;;;;;;;6.33;2.93;;;;;;;7.05;85.04;96333.05;1757370;82;21593;-66
2022/10/08 02:57:26;;;;;;;2.80;2.50;;;;;;;7.00;84.99;96340.02;1757160;82;21023;-66
2022/10/08 02:59:53;;;;;;;4.17;2.60;;;;;;;7.02;85.53;96339.59;1757175;82;21057;-66
2022/10/08 03:02:36;;;;;;;2.67;2.47;;;;;;;7.16;85.92;96341.03;1729743;82;21027;-66
2022/10/08 03:05:17;;;;;;;7.00;3.37;;;;;;;7.24;84.84;96335.38;1757093;81;21028;-66
2022/10/08 03:07:45;;;;;;;4.27;2.27;;;;;;;7.20;84.48;96335.34;1757192;82;20995;-66
2022/10/08 03:10:12;;;;;;;5.50;3.73;;;;;;;7.08;83.68;96331.79;1757168;81;20991;-66
2022/10/08 03:12:39;;;;;;;5.07;3.07;;;;;;;7.07;84.41;96332.64;1757065;81;21520;-66
2022/10/08 03:15:10;;;;;;;4.47;2.90;;;;;;;7.08;84.34;96325.64;1756666;82;21031;-66
2022/10/08 03:17:41;;;;;;;4.73;3.10;;;;;;;7.09;84.53;96329.59;1757301;82;20998;-66
2022/10/08 03:20:10;;;;;;;4.53;3.30;;;;;;;7.15;84.54;96336.19;1757115;82;21023;-66
2022/10/08 03:22:37;;;;;;;5.63;3.77;;;;;;;7.09;84.38;96330.03;1757080;81;21035;-66
2022/10/08 03:25:04;;;;;;;3.87;3.17;;;;;;;7.00;83.52;96323.41;1756900;82;21018;-66
2022/10/08 03:27:33;;;;;;;6.97;3.27;;;;;;;6.94;84.28;96325.12;1756888;82;21063;-66
2022/10/08 03:30:01;;;;;;;5.93;3.30;;;;;;;6.89;84.85;96330.77;1757513;82;21075;-66
2022/10/08 03:32:28;;;;;;;5.27;3.10;;;;;;;6.84;84.99;96324.61;1757201;82;21058;-66
2022/10/08 03:34:54;;;;;;;3.90;3.13;;;;;;;6.83;85.04;96324.17;1757139;81;20992;-66
2022/10/08 03:37:21;;;;;;;5.47;3.17;;;;;;;6.78;84.90;96320.64;1757207;82;21517;-66
2022/10/08 03:39:48;;;;;;;5.80;3.87;;;;;;;6.77;85.14;96319.30;1757409;81;21007;-66
2022/10/08 03:42:14;;;;;;;3.07;2.77;;;;;;;6.78;85.38;96319.33;1756828;82;21039;-66
2022/10/08 03:44:41;;;;;;;3.63;2.80;;;;;;;6.77;85.58;96313.62;1756855;82;21027;-66
2022/10/08 03:47:08;;;;;;;6.70;3.10;;;;;;;6.72;85.18;96316.20;1757223;82;21011;-66
2022/10/08 03:49:34;;;;;;;8.40;4.87;;;;;;;6.68;85.26;96321.43;1755511;82;21011;-66
2022/10/08 03:52:01;;;;;;;5.53;3.57;;;;;;;6.58;85.14;96319.16;1751705;81;20963;-66
2022/10/08 03:54:28;;;;;;;6.60;5.00;;;;;;;6.50;85.39;96314.26;1751361;81;21561;-66
2022/10/08 03:56:55;;;;;;;7.73;4.73;;;;;;;6.47;85.21;96315.11;1751065;82;21788;-66
2022/10/08 03:59:21;;;;;;;7.00;3.57;;;;;;;6.42;84.71;96318.13;1751711;81;21011;-66
2022/10/08 04:01:48;;;;;;;6.60;3.67;;;;;;;6.41;85.18;96309.83;1751313;82;21519;-66
2022/10/08 04:04:15;;;;;;;4.60;3.13;;;;;;;6.42;85.78;96314.20;1751526;82;21029;-66
2022/10/08 04:06:41;;;;;;;3.67;2.70;;;;;;;6.47;85.98;96314.23;1751261;82;21019;-66
2022/10/08 04:09:09;;;;;;;4.47;3.50;;;;;;;6.50;85.94;96309.92;1751442;81;21086;-66
2022/10/08 04:11:36;;;;;;;5.40;3.47;;;;;;;6.48;85.62;96309.02;1751341;82;21011;-66
2022/10/08 04:14:04;;;;;;;3.63;3.10;;;;;;;6.49;85.95;96303.34;1751193;81;21031;-66
2022/10/08 04:16:30;;;;;;;5.13;2.60;;;;;;;6.54;85.69;96304.70;1722086;82;21020;-66
2022/10/08 04:18:57;;;;;;;5.20;3.00;;;;;;;6.62;85.89;96300.39;1751640;81;21039;-66
2022/10/08 04:21:23;;;;;;;6.20;3.27;;;;;;;6.63;85.52;96304.34;1751562;81;21019;-66
2022/10/08 04:23:50;;;;;;;4.17;3.60;;;;;;;6.63;84.77;96300.41;1721749;82;21043;-66
2022/10/08 04:26:17;;;;;;;7.30;3.73;;;;;;;6.57;84.69;96299.03;1751561;82;21486;-66
2022/10/08 04:28:44;;;;;;;3.93;2.87;;;;;;;6.66;85.42;96299.55;1751435;82;21524;-66
2022/10/08 04:31:16;;;;;;;5.77;2.93;;;;;;;6.71;84.51;96303.97;1751754;81;20983;-66
2022/10/08 04:33:45;;;;;;;6.53;2.73;;;;;;;6.62;84.71;96297.77;1750413;82;21090;-66
2022/10/08 04:36:19;;;;;;;4.40;2.60;;;;;;;6.58;84.57;96295.56;1751722;82;20983;-66
2022/10/08 04:38:46;;;;;;;7.73;3.10;;;;;;;6.64;85.08;96296.04;1751349;81;21070;-66
2022/10/08 04:41:21;;;;;;;3.10;2.50;;;;;;;6.62;84.75;96298.64;1751497;82;21008;-66
2022/10/08 04:43:49;;;;;;;5.17;2.80;;;;;;;6.59;85.31;96297.30;1751583;81;20976;-66
2022/10/08 04:46:18;;;;;;;3.43;2.80;;;;;;;6.58;85.61;96293.38;1751364;81;21122;-66
2022/10/08 04:48:54;;;;;;;3.07;2.77;;;;;;;6.56;85.82;96306.47;1751492;82;21035;-66
2022/10/08 04:51:23;;;;;;;5.17;2.93;;;;;;;6.56;85.19;96306.91;1751208;81;21027;-66
2022/10/08 04:53:51;;;;;;;3.50;2.73;;;;;;;6.43;84.23;96305.48;1751361;82;21075;-66
2022/10/08 04:56:22;;;;;;;2.63;2.43;;;;;;;6.39;84.64;96305.44;1722256;82;21003;-66
2022/10/08 04:58:50;;;;;;;3.97;2.60;;;;;;;6.46;85.34;96304.19;1750961;82;21035;-66
2022/10/08 05:01:19;;;;;;;3.53;2.70;;;;;;;6.56;85.26;96299.04;1751391;82;21008;-66
2022/10/08 05:03:49;;;;;;;6.60;3.10;;;;;;;6.59;86.04;96299.05;1751477;81;21015;-66
2022/10/08 05:06:19;;;;;;;5.87;3.30;;;;;;;6.59;84.77;96291.19;1751435;82;21050;-66
2022/10/08 05:08:46;;;;;;;6.37;4.37;;;;;;;6.53;84.34;96298.58;1751474;81;21082;-66
2022/10/08 05:11:14;;;;;;;8.60;4.17;;;;;;;6.54;84.96;96296.83;1751519;82;20995;-66
2022/10/08 05:13:41;;;;;;;6.13;4.93;;;;;;;6.62;85.90;96294.70;1751274;81;21058;-66
2022/10/08 05:16:13;;;;;;;5.07;4.40;;;;;;;6.72;85.87;96293.91;1751488;81;21011;-66
2022/10/08 05:18:41;;;;;;;4.30;3.80;;;;;;;6.74;85.64;96296.55;1751531;81;20968;-66
2022/10/08 05:21:18;;;;;;;5.23;3.40;;;;;;;6.72;85.36;96300.46;1751396;81;21066;-66
2022/10/08 05:23:45;;;;;;;4.13;3.47;;;;;;;6.75;85.25;96289.56;1751853;81;21046;-66
2022/10/08 05:26:22;;;;;;;4.10;3.23;;;;;;;6.80;85.88;96293.96;1751363;81;21023;-66
2022/10/08 05:28:52;;;;;;;4.27;3.27;;;;;;;6.90;86.03;96298.44;1751839;81;20994;-66
2022/10/08 05:31:19;;;;;;;4.33;2.77;;;;;;;7.02;86.35;96296.30;1751841;81;21042;-66
2022/10/08 05:33:45;;;;;;;3.67;2.67;;;;;;;7.03;86.39;96296.77;1751820;81;21015;-66
2022/10/08 05:36:23;;;;;;;4.27;2.80;;;;;;;7.07;86.44;96301.15;1751366;82;20996;-66
2022/10/08 05:38:50;;;;;;;6.03;3.53;;;;;;;7.07;86.13;96306.84;1750213;82;21002;-66
2022/10/08 05:41:25;;;;;;;7.40;3.93;;;;;;;7.09;85.89;96298.55;1751342;82;21079;-66
2022/10/08 05:43:54;;;;;;;9.17;5.27;;;;;;;7.16;86.39;96304.28;1751672;82;21050;-66
2022/10/08 05:46:25;;;;;;;9.70;6.60;;;;;;;7.26;87.36;96297.34;1751735;82;20979;-66
2022/10/08 05:48:57;;;;;;;10.50;7.10;;;;;;;7.37;87.24;96295.64;1751905;82;21007;-66
2022/10/08 05:51:25;;;;;;;9.17;7.07;;;;;;;7.49;87.12;96297.02;1751551;82;21027;-66
2022/10/08 05:53:53;;;;;;;12.83;10.17;;;;;;;7.62;86.99;96295.76;1751691;81;21016;-66
2022/10/08 05:56:23;;;;;;;15.57;12.73;;;;;;;7.75;86.77;96298.42;1751502;81;21062;-66
2022/10/08 05:58:50;;;;;;;20.53;14.20;;;;;;;7.80;86.54;96298.00;1751603;82;20967;-66
2022/10/08 06:01:26;;;;;;;10.47;6.63;;;;;;;7.86;86.53;96297.17;1751788;81;21027;-66
2022/10/08 06:03:57;;;;;;;8.07;5.07;;;;;;;7.94;86.29;96300.69;1751483;81;21087;-66
2022/10/08 06:06:24;;;;;;;14.27;10.03;;;;;;;8.03;86.56;96289.31;1751663;81;20967;-67
2022/10/08 06:08:58;;;;;;;15.53;9.50;;;;;;;8.22;87.05;96292.88;1746659;82;21055;-66
2022/10/08 06:11:26;;;;;;;10.30;7.47;;;;;;;8.47;87.17;96298.17;1751777;81;21034;-66
2022/10/08 06:13:54;;;;;;;14.30;6.70;;;;;;;8.68;86.85;96289.44;1751425;81;21528;-66
2022/10/08 06:16:22;;;;;;;10.30;7.43;;;;;;;8.82;86.40;96287.66;1751512;82;21537;-66
2022/10/08 06:18:50;;;;;;;8.90;6.37;;;;;;;8.92;85.89;96288.53;1751587;82;21031;-66
2022/10/08 06:21:21;;;;;;;6.70;6.00;;;;;;;9.13;86.36;96285.88;1751313;82;21023;-66
2022/10/08 06:23:51;;;;;;;11.10;6.70;;;;;;;9.30;85.77;96288.05;1751475;81;21015;-66
2022/10/08 06:26:20;;;;;;;9.30;6.47;;;;;;;9.44;85.54;96286.67;1722636;82;21054;-66
2022/10/08 06:28:48;;;;;;;11.70;7.13;;;;;;;9.54;85.01;96287.08;1751585;82;21090;-66
2022/10/08 06:31:16;;;;;;;8.37;6.10;;;;;;;9.68;85.10;96294.08;1751631;82;21615;-66
2022/10/08 06:33:43;;;;;;;8.20;5.83;;;;;;;9.83;84.95;96288.73;1751657;81;20967;-67
2022/10/08 06:36:20;;;;;;;12.37;9.47;;;;;;;9.91;84.23;96286.93;1751715;81;21457;-67
2022/10/08 06:38:55;;;;;;;7.25;6.37;;;;;;;9.97;84.15;96286.88;1751550;82;21067;-67
2022/10/08 06:41:22;;;;;;;12.13;6.50;;;;;;;10.12;84.58;96285.06;1751653;82;21544;-67
2022/10/08 06:43:49;;;;;;;8.40;5.92;;;;;;;10.32;84.75;96282.34;1751499;81;20991;-67
2022/10/08 06:46:18;;;;;;;7.63;6.23;;;;;;;10.54;84.76;96275.16;1751611;81;20988;-67
2022/10/08 06:48:45;;;;;;;10.98;6.25;;;;;;;10.67;84.35;96282.53;1751669;82;21489;-68
2022/10/08 06:51:17;;;;;;;9.83;5.28;;;;;;;10.82;83.77;96281.95;1754346;82;21043;-70
2022/10/08 06:53:53;;;;;;;12.70;6.08;;;;;;;11.01;82.85;96284.42;1757263;82;20983;-70
2022/10/08 06:56:20;;;;;;;9.15;4.83;;;;;;;11.06;82.30;96279.97;1757469;82;21023;-71
2022/10/08 06:58:47;;;;;;;6.40;3.90;;;;;;;11.13;82.24;96275.06;1756727;81;21038;-71
2022/10/08 07:01:23;;;;;;;7.42;6.72;;;;;;;11.26;82.15;96279.77;1757325;82;21489;-70
2022/10/08 07:03:57;;;;;;;7.05;4.58;;;;;;;11.39;82.11;96275.23;1756925;81;20999;-70
2022/10/08 07:06:24;;;;;;;7.10;4.87;;;;;;;11.53;81.55;96270.67;1757065;82;21007;-71
2022/10/08 07:08:53;;;;;;;5.30;3.90;;;;;;;11.68;81.54;96273.14;1757146;81;21018;-70
2022/10/08 07:11:21;;;;;;;7.08;4.60;;;;;;;11.82;80.37;96270.34;1757171;82;21014;-70
2022/10/08 07:13:48;;;;;;;5.22;4.37;;;;;;;11.96;80.49;96270.18;1756950;81;21174;-71
2022/10/08 07:16:19;;;;;;;7.00;4.80;;;;;;;12.10;80.57;96260.30;1756912;82;21019;-71
2022/10/08 07:18:49;;;;;;;47.75;33.53;;;;;;;12.26;79.63;96264.91;1757371;82;21018;-71
2022/10/08 07:21:19;;;;;;;7.58;5.33;;;;;;;12.36;78.90;96265.66;1757161;82;21042;-72
2022/10/08 07:23:46;;;;;;;5.42;3.70;;;;;;;12.47;78.94;96272.11;1757142;81;21070;-71
2022/10/08 07:26:16;;;;;;;7.05;3.87;;;;;;;12.59;79.04;96267.95;1757129;81;21070;-71
2022/10/08 07:28:56;;;;;;;25.37;22.32;;;;;;;12.69;77.81;96261.61;1757086;81;20998;-72
2022/10/08 07:31:28;;;;;;;15.65;13.75;;;;;;;12.79;77.93;96259.69;1757461;82;20983;-72
2022/10/08 07:33:58;;;;;;;6.33;4.00;;;;;;;12.85;77.97;96262.68;1757173;82;21011;-72
2022/10/08 07:36:27;;;;;;;8.33;3.55;;;;;;;12.95;77.70;96257.65;1756354;82;21023;-72
2022/10/08 07:38:56;;;;;;;4.62;3.27;;;;;;;13.06;77.41;96254.83;1757235;82;21541;-71
2022/10/08 07:41:24;;;;;;;7.65;3.20;;;;;;;13.23;77.87;96265.11;1757009;82;21046;-69
2022/10/08 07:43:54;;;;;;;9.30;8.38;;;;;;;13.43;77.82;96261.70;1757184;81;21561;-69
2022/10/08 07:46:21;;;;;;;7.78;6.08;;;;;;;13.62;76.17;96261.73;1757152;81;21468;-68
2022/10/08 07:48:49;;;;;;;7.87;5.83;;;;;;;13.77;75.79;96254.39;1757159;82;21007;-65
2022/10/08 07:51:19;;;;;;;6.87;3.92;;;;;;;13.92;76.15;96250.55;1754247;81;21063;-66
2022/10/08 07:53:46;;;;;;;3.30;3.00;;;;;;;14.08;76.50;96255.92;1751545;81;21003;-66
2022/10/08 07:56:16;;;;;;;4.05;3.05;;;;;;;14.27;75.08;96250.64;1751176;82;21023;-66
2022/10/08 07:58:43;;;;;;;18.25;11.43;;;;;;;14.46;75.20;96244.89;1751307;81;21055;-66
2022/10/08 08:01:13;;;;;;;488.35;218.70;;;;;;;14.63;72.07;96247.20;1751184;81;21026;-66
2022/10/08 08:03:40;;;;;;;19.52;10.48;;;;;;;14.79;70.91;96242.38;1751626;81;21561;-66
2022/10/08 08:06:13;;;;;;;6.92;4.10;;;;;;;14.95;72.11;96238.90;1751525;81;21115;-66
2022/10/08 08:08:42;;;;;;;;;;;;;;;15.11;71.24;96235.78;1754016;81;21054;-65
2022/10/08 08:11:12;;;;;;;2.90;2.60;;;;;;;15.29;71.14;96234.88;1751528;81;20425;-66
2022/10/08 08:13:40;;;;;;;3.08;2.77;;;;;;;15.41;70.25;96235.88;1751283;81;21061;-65
2022/10/08 08:16:13;;;;;;;3.05;2.75;;;;;;;15.57;69.77;96221.27;1751448;82;21038;-65
2022/10/08 08:18:44;;;;;;;3.90;2.92;;;;;;;15.73;68.68;96223.52;1751603;82;21124;-65
2022/10/08 08:21:21;;;;;;;4.53;2.70;;;;;;;15.77;68.38;96219.40;1751244;82;21155;-65
2022/10/08 08:23:51;;;;;;;5.65;3.00;;;;;;;15.92;67.22;96223.38;1751622;81;20959;-65
2022/10/08 08:26:28;;;;;;;2.75;2.55;;;;;;;16.14;66.26;96227.60;1751519;82;21627;-65
2022/10/08 08:28:58;;;;;;;2.83;2.58;;;;;;;16.14;66.26;96227.60;1751556;81;20999;-65
2022/10/08 08:31:31;;;;;;;4.28;2.37;;;;;;;16.18;65.00;96219.95;1751383;82;21485;-65
2022/10/08 08:34:04;;;;;;;7.37;2.90;;;;;;;16.32;64.53;96222.63;1751755;81;21042;-66
2022/10/08 08:36:35;;;;;;;2.55;2.35;;;;;;;16.40;62.71;96221.92;1751598;82;21023;-65
2022/10/08 08:39:04;;;;;;;4.37;2.40;;;;;;;16.55;64.86;96212.58;1751663;82;20995;-67
2022/10/08 08:41:59;;;;;;;4.37;2.60;;;;;;;16.66;65.03;96201.99;1751473;81;21058;-66
2022/10/08 08:44:42;;;;;;;3.95;2.67;;;;;;;16.72;64.41;96206.71;1750412;82;21011;-66
2022/10/08 08:47:33;;;;;;;7.95;2.87;;;;;;;16.81;64.33;96201.98;1723108;82;21039;-66
2022/10/08 08:50:24;;;;;;;5.37;2.65;;;;;;;16.92;63.24;96202.95;1751799;81;21027;-67
2022/10/08 08:52:51;;;;;;;4.12;2.75;;;;;;;17.02;62.61;96199.05;1751366;82;21023;-67
2022/10/08 08:55:27;;;;;;;3.15;2.67;;;;;;;17.14;63.31;96201.76;1751298;82;21082;-67
2022/10/08 08:57:59;;;;;;;4.50;3.05;;;;;;;17.13;62.85;96202.66;1721216;82;21003;-66
2022/10/08 09:00:35;;;;;;;4.30;2.73;;;;;;;17.27;63.94;96203.53;1751701;82;21050;-67
2022/10/08 09:03:14;;;;;;;3.12;2.72;;;;;;;17.48;63.84;96192.55;1751701;81;21537;-67
2022/10/08 09:05:45;;;;;;;3.15;2.85;;;;;;;17.64;63.66;96189.74;1745850;82;21103;-66
2022/10/08 09:08:38;;;;;;;3.12;2.80;;;;;;;17.78;63.34;96187.88;1751593;82;21055;-67
2022/10/08 09:11:06;;;;;;;5.70;2.98;;;;;;;17.90;62.66;96186.12;1714771;82;21095;-67
2022/10/08 09:13:54;;;;;;;5.62;2.90;;;;;;;18.00;61.46;96185.31;1721790;82;20997;-67
2022/10/08 09:16:21;;;;;;;5.12;2.30;;;;;;;18.04;61.39;96184.27;1751202;82;21007;-67
2022/10/08 09:18:50;;;;;;;3.58;2.60;;;;;;;18.14;59.23;96180.31;1751093;82;21573;-66
2022/10/08 09:21:19;;;;;;;4.03;2.40;;;;;;;18.29;61.27;96181.95;1751529;82;21035;-67
2022/10/08 09:23:47;;;;;;;2.87;2.62;;;;;;;18.43;59.97;96177.41;1751590;81;21517;-67
2022/10/08 09:26:21;;;;;;;3.37;3.00;;;;;;;18.48;59.35;96178.09;1751491;81;20991;-67
2022/10/08 09:28:59;;;;;;;3.22;3.00;;;;;;;18.56;59.83;96177.31;1751655;81;21019;-67
2022/10/08 09:31:40;;;;;;;3.83;2.87;;;;;;;18.68;59.86;96174.61;1751595;82;21003;-67
2022/10/08 09:34:17;;;;;;;3.90;2.70;;;;;;;18.80;58.37;96174.14;1751473;81;20964;-67
2022/10/08 09:36:53;;;;;;;6.70;3.02;;;;;;;18.84;58.18;96174.39;1751412;82;20999;-67
2022/10/08 09:39:34;;;;;;;2.90;2.70;;;;;;;18.91;59.06;96173.20;1751758;82;20999;-66
2022/10/08 09:42:16;;;;;;;5.50;2.70;;;;;;;19.10;59.67;96173.31;1751517;82;21035;-67
2022/10/08 09:44:56;;;;;;;7.08;3.30;;;;;;;19.21;57.85;96164.81;1751364;82;20995;-66
2022/10/08 09:47:25;;;;;;;4.85;2.60;;;;;;;19.28;58.26;96155.59;1751575;81;21023;-67
2022/10/08 09:50:17;;;;;;;6.22;3.08;;;;;;;19.40;58.10;96156.38;1751595;82;21041;-67
2022/10/08 09:52:50;;;;;;;3.58;3.10;;;;;;;19.50;57.35;96151.46;1756450;81;21019;-67
2022/10/08 09:55:21;;;;;;;3.67;2.80;;;;;;;19.48;57.32;96153.36;1757165;82;21019;-67
2022/10/08 09:57:52;;;;;;;6.10;3.22;;;;;;;19.56;57.27;96157.03;1757179;81;21521;-67
2022/10/08 10:00:38;;;;;;;4.78;3.02;;;;;;;19.62;56.41;96144.70;1756678;82;21027;-67
2022/10/08 10:03:18;;;;;;;8.25;3.52;;;;;;;19.62;55.98;96144.22;1756851;82;21035;-67
2022/10/08 10:05:52;;;;;;;6.83;3.17;;;;;;;19.68;56.77;96143.13;1756495;82;21097;-67
2022/10/08 10:08:49;;;;;;;3.10;2.80;;;;;;;19.85;57.53;96145.00;1757014;81;21011;-67
2022/10/08 10:11:31;;;;;;;4.53;3.00;;;;;;;20.00;56.69;96142.95;1757265;82;21018;-67
2022/10/08 10:14:03;;;;;;;4.95;2.90;;;;;;;20.21;56.30;96138.40;1756196;82;21072;-67
2022/10/08 10:16:38;;;;;;;6.12;2.92;;;;;;;20.31;56.53;96137.02;1757407;82;21003;-67
2022/10/08 10:19:15;;;;;;;3.50;3.20;;;;;;;20.49;56.10;96133.04;1757325;82;21011;-67
2022/10/08 10:22:08;;;;;;;4.00;2.50;;;;;;;20.53;54.62;96127.91;1726096;82;21007;-66
2022/10/08 10:24:47;;;;;;;4.00;2.98;;;;;;;20.64;54.15;96124.27;1757435;82;21030;-67
2022/10/08 10:27:28;;;;;;;8.58;3.20;;;;;;;20.86;55.10;96115.13;1756609;82;21079;-67
2022/10/08 10:30:22;;;;;;;4.10;3.20;;;;;;;21.15;53.18;96114.49;1757175;81;21039;-66
2022/10/08 10:33:11;;;;;;;4.47;2.62;;;;;;;21.44;51.09;96104.54;1757412;81;21453;-67
2022/10/08 10:35:52;;;;;;;3.08;2.72;;;;;;;21.79;49.27;96106.66;1757322;81;21078;-66
2022/10/08 10:38:28;;;;;;;7.92;2.87;;;;;;;22.24;49.83;96099.70;1757384;82;21038;-67
2022/10/08 10:41:27;;;;;;;3.02;2.70;;;;;;;22.54;48.02;96097.08;1757287;81;21058;-67
2022/10/08 10:44:08;;;;;;;4.62;3.08;;;;;;;22.83;47.76;96094.04;1757236;81;21068;-67
2022/10/08 10:46:52;;;;;;;6.22;3.00;;;;;;;23.15;46.29;96085.88;1757275;81;21532;-67
2022/10/08 10:49:29;;;;;;;3.17;2.75;;;;;;;23.35;43.75;96075.23;1757222;81;21019;-67
2022/10/08 10:52:32;;;;;;;4.33;2.72;;;;;;;23.92;45.01;96082.01;1751713;82;21038;-67
2022/10/08 10:55:30;;;;;;;3.50;3.05;;;;;;;24.32;44.61;96067.78;1757315;82;20991;-67
2022/10/08 10:58:23;;;;;;;2.95;2.58;;;;;;;24.67;42.24;96063.23;1756937;82;21065;-67
2022/10/08 11:01:16;;;;;;;6.03;2.47;;;;;;;25.21;41.70;96059.98;1756780;82;21070;-67
2022/10/08 11:03:51;;;;;;;3.95;2.27;;;;;;;25.56;39.23;96058.01;1756899;81;21047;-67
2022/10/08 11:06:39;;;;;;;5.40;2.30;;;;;;;25.60;37.43;96055.48;1757384;81;21098;-67
2022/10/08 11:09:19;;;;;;;3.45;1.90;;;;;;;25.62;38.42;96058.05;1757186;81;21509;-67
2022/10/08 11:11:54;;;;;;;3.60;2.65;;;;;;;25.94;39.21;96050.86;1729981;82;21560;-67
2022/10/08 11:14:32;;;;;;;3.58;2.22;;;;;;;26.40;39.70;96046.13;1756541;81;21005;-67
2022/10/08 11:17:07;;;;;;;6.33;2.40;;;;;;;26.63;37.35;96036.30;1756847;82;20992;-67
2022/10/08 11:19:52;;;;;;;2.70;2.50;;;;;;;26.73;38.15;96028.71;1757178;81;21568;-67
2022/10/08 11:22:42;;;;;;;4.08;2.27;;;;;;;26.88;36.60;96029.89;1757718;81;21480;-67
2022/10/08 11:25:32;;;;;;;3.65;2.30;;;;;;;27.01;37.84;96025.73;1756805;82;21035;-67
2022/10/08 11:28:27;;;;;;;3.22;2.00;;;;;;;26.99;35.27;96017.75;1756756;81;21485;-67
2022/10/08 11:31:25;;;;;;;4.15;2.30;;;;;;;27.12;36.84;96017.16;1757158;81;21518;-68
2022/10/08 11:33:55;;;;;;;3.55;2.00;;;;;;;27.27;35.80;96010.22;1755864;82;21031;-67
2022/10/08 11:37:09;;;;;;;3.10;2.17;;;;;;;27.15;35.29;96005.22;1756968;82;21027;-68
2022/10/08 11:40:18;;;;;;;3.10;2.05;;;;;;;27.21;36.44;96006.61;1757313;81;21825;-67
2022/10/08 11:43:06;;;;;;;5.42;2.27;;;;;;;27.46;36.40;96002.33;1756984;81;21026;-67
2022/10/08 11:45:40;;;;;;;4.58;2.50;;;;;;;27.64;37.12;96002.70;1756776;82;21031;-67
2022/10/08 11:48:35;;;;;;;2.77;2.10;;;;;;;27.91;35.71;95992.87;1757032;81;21035;-67
2022/10/08 11:51:23;;;;;;;2.77;2.00;;;;;;;28.24;35.77;95993.30;1756835;81;21084;-67
2022/10/08 11:54:15;;;;;;;4.05;2.33;;;;;;;28.11;35.10;95989.88;1756880;82;21058;-67
2022/10/08 11:56:50;;;;;;;3.12;2.00;;;;;;;28.23;35.93;95996.16;1757197;82;20992;-67
2022/10/08 11:59:28;;;;;;;3.17;2.12;;;;;;;28.22;35.33;95993.06;1757371;82;21038;-67
2022/10/08 12:02:03;;;;;;;3.20;2.15;;;;;;;27.76;34.98;95982.74;1756387;82;21062;-67
2022/10/08 12:04:34;;;;;;;4.00;2.37;;;;;;;27.86;36.23;95984.25;1756812;82;21050;-68
2022/10/08 12:07:15;;;;;;;3.65;2.10;;;;;;;28.21;35.93;95980.49;1755858;82;21019;-68
2022/10/08 12:10:08;;;;;;;3.12;2.15;;;;;;;28.33;34.13;95975.91;1753869;82;21520;-67
2022/10/08 12:12:59;;;;;;;5.00;2.10;;;;;;;28.30;35.16;95971.59;1757089;81;21031;-67